createdAt,value
2019-02-18T00:01:51.665Z,239.93
2019-02-18T00:04:21.026Z,245.87
2019-02-18T00:06:50.484Z,245.13
2019-02-18T00:09:19.858Z,246.87
2019-02-18T00:11:49.189Z,244.33
2019-02-18T00:14:18.559Z,233.47
2019-02-18T00:16:48.051Z,225.20
2019-02-18T00:19:17.413Z,217.97
2019-02-18T00:21:46.923Z,210.60
2019-02-18T00:24:16.125Z,221.30
2019-02-18T00:26:45.415Z,206.90
2019-02-18T00:29:14.790Z,193.27
2019-02-18T00:31:44.179Z,175.40
2019-02-18T00:34:13.472Z,176.50
2019-02-18T00:36:42.775Z,160.70
2019-02-18T00:39:12.081Z,156.03
2019-02-18T00:41:41.412Z,152.80
2019-02-18T00:44:10.813Z,146.97
2019-02-18T00:46:40.103Z,147.50
2019-02-18T00:49:11.507Z,170.00
2019-02-18T00:51:40.811Z,190.83
2019-02-18T00:54:10.143Z,206.30
2019-02-18T00:56:39.532Z,209.07
2019-02-18T00:59:09.008Z,230.77
2019-02-18T01:01:38.441Z,221.53
2019-02-18T01:04:07.785Z,237.50
2019-02-18T01:06:37.147Z,250.67
2019-02-18T01:09:07.353Z,251.43
2019-02-18T01:11:36.710Z,247.83
2019-02-18T01:14:06.009Z,246.07
2019-02-18T01:16:35.330Z,234.90
2019-02-18T01:22:07.311Z,202.47
2019-02-18T01:24:36.612Z,208.60
2019-02-18T01:27:05.956Z,181.77
2019-02-18T01:29:35.313Z,171.77
2019-02-18T01:32:04.695Z,150.47
2019-02-18T01:34:34.121Z,145.23
2019-02-18T01:37:03.593Z,132.67
2019-02-18T01:39:32.875Z,134.73
2019-02-18T01:42:02.215Z,134.43
2019-02-18T01:44:31.607Z,135.23
2019-02-18T01:47:01.057Z,131.33
2019-02-18T01:49:30.418Z,129.07
2019-02-18T01:51:59.820Z,128.67
2019-02-18T01:54:29.195Z,129.37
2019-02-18T01:56:58.495Z,132.47
2019-02-18T01:59:27.942Z,135.37
2019-02-18T02:01:57.282Z,135.83
2019-02-18T02:04:26.615Z,131.17
2019-02-18T02:06:55.910Z,139.90
2019-02-18T02:09:25.299Z,142.93
2019-02-18T02:11:54.700Z,151.00
2019-02-18T02:14:23.996Z,143.97
2019-02-18T02:16:53.418Z,155.97
2019-02-18T02:19:22.721Z,148.53
2019-02-18T02:21:52.179Z,149.63
2019-02-18T02:24:21.592Z,155.23
2019-02-18T02:26:50.949Z,163.27
2019-02-18T02:29:20.354Z,155.70
2019-02-18T02:31:49.719Z,164.70
2019-02-18T02:34:19.124Z,162.37
2019-02-18T02:36:48.630Z,158.50
2019-02-18T02:39:17.865Z,161.03
2019-02-18T02:41:47.225Z,174.63
2019-02-18T02:44:16.584Z,159.93
2019-02-18T02:46:46.975Z,161.73
2019-02-18T02:49:16.401Z,153.30
2019-02-18T02:51:45.786Z,149.63
2019-02-18T02:54:15.183Z,159.00
2019-02-18T02:56:44.589Z,150.00
2019-02-18T02:59:14.081Z,158.20
2019-02-18T03:01:43.434Z,148.70
2019-02-18T03:04:12.860Z,150.30
2019-02-18T03:06:42.166Z,151.40
2019-02-18T03:09:11.484Z,155.60
2019-02-18T03:11:40.763Z,155.60
2019-02-18T03:14:11.147Z,156.93
2019-02-18T03:16:40.504Z,163.57
2019-02-18T03:19:09.842Z,156.30
2019-02-18T03:21:39.319Z,164.67
2019-02-18T03:24:34.944Z,158.27
2019-02-18T03:27:23.471Z,160.73
2019-02-18T03:30:29.693Z,160.60
2019-02-18T03:32:59.048Z,157.77
2019-02-18T03:35:28.425Z,162.13
2019-02-18T03:37:58.275Z,161.40
2019-02-18T03:43:50.309Z,154.93
2019-02-18T03:49:42.334Z,150.87
2019-02-18T03:52:11.831Z,156.53
2019-02-18T03:54:41.064Z,156.37
2019-02-18T03:57:10.517Z,145.17
2019-02-18T03:59:39.872Z,145.40
2019-02-18T04:02:09.332Z,146.90
2019-02-18T04:04:38.709Z,149.97
2019-02-18T04:07:08.040Z,142.37
2019-02-18T04:09:37.450Z,150.83
2019-02-18T04:12:06.796Z,140.57
2019-02-18T04:14:36.159Z,145.80
2019-02-18T04:17:05.465Z,134.60
2019-02-18T04:19:34.884Z,134.17
2019-02-18T04:22:04.324Z,141.17
2019-02-18T04:24:33.672Z,138.30
2019-02-18T04:27:03.071Z,129.20
2019-02-18T04:29:32.423Z,134.10
2019-02-18T04:32:01.796Z,137.53
2019-02-18T04:34:31.225Z,129.00
2019-02-18T04:37:00.672Z,135.97
2019-02-18T04:39:30.129Z,141.07
2019-02-18T04:41:59.416Z,143.93
2019-02-18T04:44:28.808Z,137.30
2019-02-18T04:46:58.087Z,135.43
2019-02-18T04:49:27.515Z,135.90
2019-02-18T04:51:56.941Z,143.90
2019-02-18T04:54:26.273Z,142.40
2019-02-18T04:56:55.647Z,133.77
2019-02-18T04:59:25.006Z,136.67
2019-02-18T05:01:54.408Z,133.07
2019-02-18T05:04:23.834Z,135.60
2019-02-18T05:06:53.217Z,141.53
2019-02-18T05:09:22.556Z,134.33
2019-02-18T05:11:51.870Z,136.53
2019-02-18T05:14:21.256Z,137.13
2019-02-18T05:16:50.656Z,138.93
2019-02-18T05:19:20.062Z,138.63
2019-02-18T05:21:49.379Z,144.47
2019-02-18T05:24:18.625Z,137.73
2019-02-18T05:26:47.999Z,144.73
2019-02-18T05:29:17.390Z,142.97
2019-02-18T05:31:46.760Z,143.50
2019-02-18T05:34:16.063Z,152.87
2019-02-18T05:36:45.458Z,142.67
2019-02-18T05:39:17.952Z,151.10
2019-02-18T05:41:45.879Z,147.60
2019-02-18T05:44:15.308Z,138.57
2019-02-18T05:46:44.715Z,135.90
2019-02-18T05:49:14.110Z,143.77
2019-02-18T05:51:43.443Z,137.67
2019-02-18T05:54:12.739Z,119.73
2019-02-18T05:56:42.164Z,111.13
2019-02-18T05:59:11.434Z,112.07
2019-02-18T06:01:40.796Z,116.17
2019-02-18T06:04:10.137Z,118.17
2019-02-18T06:06:39.576Z,108.40
2019-02-18T06:09:08.923Z,129.33
2019-02-18T06:11:38.263Z,125.93
2019-02-18T06:14:07.666Z,123.27
2019-02-18T06:16:37.183Z,121.97
2019-02-18T06:19:06.554Z,124.23
2019-02-18T06:21:35.919Z,131.87
2019-02-18T06:24:05.443Z,133.53
2019-02-18T06:26:34.945Z,118.57
2019-02-18T06:29:04.384Z,126.97
2019-02-18T06:31:33.688Z,117.37
2019-02-18T06:34:03.113Z,123.47
2019-02-18T06:36:32.580Z,120.90
2019-02-18T06:39:02.040Z,111.50
2019-02-18T06:41:31.444Z,115.03
2019-02-18T06:44:01.024Z,118.00
2019-02-18T06:46:39.498Z,114.97
2019-02-18T06:49:17.456Z,120.47
2019-02-18T06:51:47.819Z,124.63
2019-02-18T06:54:17.430Z,124.33
2019-02-18T06:57:11.551Z,117.70
2019-02-18T06:59:45.012Z,119.40
2019-02-18T07:02:19.367Z,126.03
2019-02-18T07:05:13.464Z,132.33
2019-02-18T07:08:04.952Z,128.60
2019-02-18T07:11:02.097Z,120.80
2019-02-18T07:13:31.484Z,122.53
2019-02-18T07:16:00.791Z,126.73
2019-02-18T07:18:30.128Z,120.93
2019-02-18T07:20:59.527Z,122.80
2019-02-18T07:23:28.903Z,121.87
2019-02-18T07:25:58.265Z,116.27
2019-02-18T07:28:27.676Z,125.10
2019-02-18T07:30:57.277Z,119.47
2019-02-18T07:33:26.609Z,120.27
2019-02-18T07:35:55.936Z,113.00
2019-02-18T07:38:25.617Z,110.40
2019-02-18T07:40:55.043Z,102.87
2019-02-18T07:43:24.516Z,110.53
2019-02-18T07:45:53.726Z,113.57
2019-02-18T07:48:22.994Z,107.63
2019-02-18T07:51:11.334Z,106.83
2019-02-18T07:53:40.686Z,108.43
2019-02-18T07:56:09.939Z,99.30
2019-02-18T07:58:41.558Z,107.20
2019-02-18T08:01:10.911Z,100.33
2019-02-18T08:03:40.220Z,105.67
2019-02-18T08:06:09.482Z,103.70
2019-02-18T08:08:41.831Z,99.63
2019-02-18T08:11:11.143Z,107.20
2019-02-18T08:13:40.567Z,108.53
2019-02-18T08:16:09.814Z,104.73
2019-02-18T08:18:39.206Z,103.97
2019-02-18T08:21:08.540Z,104.37
2019-02-18T08:23:37.916Z,94.60
2019-02-18T08:26:07.239Z,100.53
2019-02-18T08:28:36.587Z,90.57
2019-02-18T08:31:05.993Z,91.40
2019-02-18T08:33:35.327Z,84.23
2019-02-18T08:36:04.659Z,76.57
2019-02-18T08:38:34.077Z,89.80
2019-02-18T08:41:03.408Z,98.57
2019-02-18T08:43:33.275Z,93.53
2019-02-18T08:46:02.683Z,90.43
2019-02-18T08:48:32.270Z,92.80
2019-02-18T08:51:01.624Z,87.50
2019-02-18T08:53:30.992Z,80.00
2019-02-18T08:56:00.484Z,67.23
2019-02-18T08:58:29.887Z,63.30
2019-02-18T09:01:18.531Z,54.30
2019-02-18T09:03:48.254Z,43.23
2019-02-18T09:06:17.578Z,40.80
2019-02-18T09:08:46.857Z,44.43
2019-02-18T09:11:16.280Z,48.63
2019-02-18T09:13:45.720Z,40.27
2019-02-18T09:16:15.050Z,45.77
2019-02-18T09:18:44.333Z,41.13
2019-02-18T09:21:13.675Z,46.70
2019-02-18T09:23:47.968Z,48.07
2019-02-18T09:26:17.661Z,39.43
2019-02-18T09:28:47.158Z,41.93
2019-02-18T09:31:18.144Z,45.10
2019-02-18T09:33:47.378Z,46.80
2019-02-18T09:36:16.582Z,44.27
2019-02-18T09:38:46.024Z,52.37
2019-02-18T09:41:15.391Z,53.30
2019-02-18T09:43:44.598Z,51.03
2019-02-18T09:46:14.064Z,50.37
2019-02-18T09:48:43.392Z,51.73
2019-02-18T09:51:13.046Z,49.13
2019-02-18T09:53:42.351Z,49.50
2019-02-18T09:56:11.748Z,50.50
2019-02-18T09:58:41.068Z,51.53
2019-02-18T10:01:10.497Z,49.03
2019-02-18T10:03:39.953Z,48.07
2019-02-18T10:06:09.317Z,43.83
2019-02-18T10:08:38.794Z,44.83
2019-02-18T10:11:08.247Z,38.93
2019-02-18T10:13:37.708Z,40.20
2019-02-18T10:16:07.056Z,42.97
2019-02-18T10:18:36.430Z,36.73
2019-02-18T10:21:05.831Z,38.60
2019-02-18T10:23:35.221Z,39.43
2019-02-18T10:26:04.608Z,41.90
2019-02-18T10:28:33.938Z,44.63
2019-02-18T10:31:03.310Z,45.87
2019-02-18T10:33:32.618Z,48.53
2019-02-18T10:36:01.986Z,47.37
2019-02-18T10:38:31.453Z,47.03
2019-02-18T10:41:06.883Z,49.30
2019-02-18T10:43:32.782Z,47.23
2019-02-18T10:46:02.269Z,48.73
2019-02-18T10:48:31.672Z,50.70
2019-02-18T10:51:01.081Z,46.13
2019-02-18T10:53:30.481Z,56.10
2019-02-18T10:55:59.893Z,52.10
2019-02-18T10:58:29.325Z,47.77
2019-02-18T11:00:58.747Z,42.83
2019-02-18T11:03:28.245Z,45.83
2019-02-18T11:05:57.651Z,40.80
2019-02-18T11:08:27.023Z,37.53
2019-02-18T11:10:56.530Z,39.50
2019-02-18T11:13:25.888Z,40.93
2019-02-18T11:15:55.259Z,42.90
2019-02-18T11:18:24.619Z,38.07
2019-02-18T11:20:53.929Z,37.30
2019-02-18T11:23:23.361Z,32.70
2019-02-18T11:25:52.829Z,26.77
2019-02-18T11:28:22.250Z,24.00
2019-02-18T11:30:51.632Z,21.13
2019-02-18T11:33:40.024Z,19.50
2019-02-18T11:36:09.449Z,17.10
2019-02-18T11:38:39.274Z,16.90
2019-02-18T11:41:08.607Z,19.73
2019-02-18T11:43:37.992Z,17.60
2019-02-18T11:46:07.456Z,22.37
2019-02-18T11:48:37.063Z,22.63
2019-02-18T11:51:06.355Z,23.93
2019-02-18T11:53:35.990Z,25.07
2019-02-18T11:56:05.406Z,25.33
2019-02-18T12:01:41.804Z,28.57
2019-02-18T12:04:11.187Z,25.57
2019-02-18T12:06:59.697Z,27.47
2019-02-18T12:09:50.986Z,29.57
2019-02-18T12:15:10.144Z,31.40
2019-02-18T12:17:39.559Z,31.63
2019-02-18T12:20:11.114Z,29.97
2019-02-18T12:22:40.514Z,30.23
2019-02-18T12:25:10.066Z,30.60
2019-02-18T12:27:39.833Z,25.13
2019-02-18T12:30:10.286Z,29.43
2019-02-18T12:32:39.867Z,25.83
2019-02-18T12:35:09.492Z,31.77
2019-02-18T12:37:39.013Z,30.73
2019-02-18T12:40:08.837Z,29.37
2019-02-18T12:42:38.595Z,27.77
2019-02-18T12:45:08.739Z,27.40
2019-02-18T12:47:38.157Z,29.23
2019-02-18T12:50:07.720Z,26.43
2019-02-18T12:52:37.218Z,27.60
2019-02-18T12:55:06.676Z,25.17
2019-02-18T12:57:36.396Z,26.03
2019-02-18T13:00:06.524Z,28.00
2019-02-18T13:02:43.693Z,25.73
2019-02-18T13:05:08.123Z,24.57
2019-02-18T13:07:37.654Z,27.23
2019-02-18T13:10:07.293Z,26.13
2019-02-18T13:12:36.881Z,25.77
2019-02-18T13:15:07.743Z,26.20
2019-02-18T13:17:37.296Z,29.77
2019-02-18T13:20:07.022Z,22.93
2019-02-18T13:22:36.481Z,23.80
2019-02-18T13:25:06.227Z,26.87
2019-02-18T13:27:35.579Z,29.73
2019-02-18T13:30:08.668Z,23.30
2019-02-18T13:32:38.097Z,27.47
2019-02-18T13:35:07.699Z,21.53
2019-02-18T13:37:37.168Z,23.17
2019-02-18T13:40:06.700Z,24.97
2019-02-18T13:42:36.586Z,24.23
2019-02-18T13:45:06.448Z,20.50
2019-02-18T13:47:35.953Z,23.23
2019-02-18T13:50:06.055Z,22.40
2019-02-18T13:52:35.613Z,23.53
2019-02-18T13:55:07.793Z,21.20
2019-02-18T14:04:09.072Z,21.40
2019-02-18T14:06:38.450Z,31.37
2019-02-18T14:09:08.373Z,23.37
2019-02-18T14:11:37.697Z,25.43
2019-02-18T14:14:07.262Z,24.00
2019-02-18T14:16:36.796Z,29.00
2019-02-18T14:19:06.471Z,26.50
2019-02-18T14:21:36.029Z,28.00
2019-02-18T14:24:05.775Z,29.13
2019-02-18T14:26:35.388Z,31.20
2019-02-18T14:29:04.800Z,27.53
2019-02-18T14:31:34.255Z,34.33
2019-02-18T14:34:03.635Z,34.13
2019-02-18T14:36:42.164Z,39.33
2019-02-18T14:39:19.883Z,35.23
2019-02-18T14:41:49.347Z,30.50
2019-02-18T14:44:18.810Z,30.93
2019-02-18T14:46:48.425Z,30.67
2019-02-18T14:49:18.210Z,29.33
2019-02-18T14:51:47.690Z,26.00
2019-02-18T14:54:17.187Z,30.87
2019-02-18T14:56:46.605Z,28.43
2019-02-18T14:59:16.233Z,31.70
2019-02-18T15:01:45.700Z,35.23
2019-02-18T15:04:15.342Z,32.13
2019-02-18T15:06:44.735Z,33.80
2019-02-18T15:09:14.405Z,33.47
2019-02-18T15:11:43.845Z,32.77
2019-02-18T15:14:13.210Z,40.53
2019-02-18T15:16:42.605Z,43.17
2019-02-18T15:19:12.282Z,47.03
2019-02-18T15:21:41.727Z,40.37
2019-02-18T15:24:11.096Z,47.10
2019-02-18T15:26:40.509Z,49.13
2019-02-18T15:29:09.873Z,49.03
2019-02-18T15:31:39.495Z,52.60
2019-02-18T15:34:09.117Z,68.83
2019-02-18T15:36:38.510Z,65.63
2019-02-18T15:39:07.894Z,77.90
2019-02-18T15:41:37.283Z,76.80
2019-02-18T15:44:06.866Z,85.70
2019-02-18T15:46:36.245Z,78.87
2019-02-18T15:49:05.878Z,79.13
2019-02-18T15:51:35.348Z,90.97
2019-02-18T15:54:04.716Z,105.50
2019-02-18T15:56:34.106Z,96.60
2019-02-18T15:59:03.577Z,112.10
2019-02-18T16:01:32.931Z,114.43
2019-02-18T16:04:02.320Z,111.83
2019-02-18T16:06:31.903Z,111.03
2019-02-18T16:09:01.284Z,118.33
2019-02-18T16:11:30.648Z,96.37
2019-02-18T16:14:00.112Z,98.17
2019-02-18T16:16:29.694Z,99.57
2019-02-18T16:18:59.138Z,104.87
2019-02-18T16:21:28.563Z,105.57
2019-02-18T16:23:58.150Z,104.13
2019-02-18T16:26:27.571Z,103.30
2019-02-18T16:28:57.010Z,98.90
2019-02-18T16:31:26.462Z,94.97
2019-02-18T16:33:56.074Z,100.00
2019-02-18T16:36:25.628Z,111.33
2019-02-18T16:39:14.359Z,116.17
2019-02-18T16:42:02.863Z,112.63
2019-02-18T16:44:32.298Z,117.27
2019-02-18T16:47:01.680Z,127.50
2019-02-18T16:49:31.258Z,131.03
2019-02-18T16:52:00.640Z,115.53
2019-02-18T16:54:30.267Z,104.40
2019-02-18T16:56:59.672Z,108.80
2019-02-18T16:59:29.220Z,97.17
2019-02-18T17:01:58.742Z,94.67
2019-02-18T17:04:28.115Z,83.07
2019-02-18T17:06:57.546Z,82.50
2019-02-18T17:09:27.139Z,83.57
2019-02-18T17:11:56.830Z,77.37
2019-02-18T17:14:26.449Z,75.63
2019-02-18T17:16:55.898Z,79.73
2019-02-18T17:19:25.374Z,84.20
2019-02-18T17:21:54.787Z,82.17
2019-02-18T17:24:24.162Z,81.87
2019-02-18T17:26:53.551Z,89.13
2019-02-18T17:29:22.960Z,83.13
2019-02-18T17:31:52.319Z,90.17
2019-02-18T17:34:21.738Z,90.20
2019-02-18T17:36:51.127Z,92.40
2019-02-18T17:39:20.610Z,94.93
2019-02-18T17:41:49.981Z,103.90
2019-02-18T17:44:20.489Z,97.83
2019-02-18T17:46:49.900Z,101.27
2019-02-18T17:49:19.255Z,103.70
2019-02-18T17:51:48.635Z,117.37
2019-02-18T17:54:18.165Z,110.03
2019-02-18T17:56:47.519Z,107.80
2019-02-18T17:59:16.970Z,114.13
2019-02-18T18:01:46.351Z,123.33
2019-02-18T18:04:15.665Z,111.80
2019-02-18T18:06:45.051Z,106.97
2019-02-18T18:09:14.456Z,115.10
2019-02-18T18:11:43.865Z,111.53
2019-02-18T18:14:13.397Z,110.17
2019-02-18T18:16:42.807Z,108.23
2019-02-18T18:19:12.269Z,104.50
2019-02-18T18:21:41.667Z,106.60
2019-02-18T18:24:11.116Z,109.60
2019-02-18T18:26:40.503Z,107.30
2019-02-18T18:29:09.920Z,108.30
2019-02-18T18:31:39.287Z,109.40
2019-02-18T18:34:08.675Z,109.90
2019-02-18T18:36:38.132Z,114.57
2019-02-18T18:39:07.429Z,108.77
2019-02-18T18:41:36.803Z,116.50
2019-02-18T18:44:06.235Z,116.67
2019-02-18T18:46:35.675Z,118.17
2019-02-18T18:49:05.069Z,125.80
2019-02-18T18:51:34.784Z,123.53
2019-02-18T18:54:04.307Z,121.93
2019-02-18T18:56:33.733Z,125.40
2019-02-18T18:59:03.200Z,134.77
2019-02-18T19:01:33.010Z,126.57
2019-02-18T19:04:02.350Z,132.97
2019-02-18T19:06:31.975Z,129.37
2019-02-18T19:09:01.376Z,122.17
2019-02-18T19:11:30.763Z,121.53
2019-02-18T19:14:00.148Z,138.27
2019-02-18T19:16:29.636Z,135.10
2019-02-18T19:18:59.111Z,140.83
2019-02-18T19:21:28.517Z,147.47
2019-02-18T19:23:57.858Z,145.27
2019-02-18T19:26:27.316Z,155.77
2019-02-18T19:28:56.689Z,154.90
2019-02-18T19:31:28.524Z,151.83
2019-02-18T19:33:58.130Z,166.97
2019-02-18T19:36:27.533Z,164.67
2019-02-18T19:38:56.915Z,162.90
2019-02-18T19:41:26.321Z,165.60
2019-02-18T19:43:55.807Z,166.23
2019-02-18T19:46:25.207Z,162.60
2019-02-18T19:48:54.591Z,167.43
2019-02-18T19:51:23.996Z,162.57
2019-02-18T19:53:53.378Z,160.17
2019-02-18T19:56:22.820Z,163.37
2019-02-18T19:58:52.246Z,165.13
2019-02-18T20:01:21.674Z,154.17
2019-02-18T20:03:51.113Z,155.17
2019-02-18T20:06:20.495Z,157.13
2019-02-18T20:08:49.792Z,162.60
2019-02-18T20:11:19.260Z,166.10
2019-02-18T20:13:48.622Z,162.10
2019-02-18T20:16:18.309Z,158.33
2019-02-18T20:18:47.748Z,169.57
2019-02-18T20:21:17.168Z,172.37
2019-02-18T20:23:46.497Z,184.57
2019-02-18T20:26:15.907Z,240.37
2019-02-18T20:28:45.427Z,235.00
2019-02-18T20:31:15.033Z,255.70
2019-02-18T20:33:44.422Z,269.70
2019-02-18T20:36:13.763Z,271.57
2019-02-18T20:38:43.141Z,270.73
2019-02-18T20:41:12.552Z,247.17
2019-02-18T20:43:41.953Z,240.97
2019-02-18T20:46:11.452Z,231.40
2019-02-18T20:48:40.985Z,216.57
2019-02-18T20:51:10.374Z,209.33
2019-02-18T20:53:39.761Z,198.30
2019-02-18T20:56:09.167Z,201.57
2019-02-18T20:58:38.705Z,191.27
2019-02-18T21:01:08.128Z,182.77
2019-02-18T21:03:37.700Z,192.40
2019-02-18T21:06:07.109Z,182.80
2019-02-18T21:08:36.487Z,183.27
2019-02-18T21:11:05.864Z,175.57
2019-02-18T21:13:35.290Z,183.93
2019-02-18T21:16:04.610Z,177.00
2019-02-18T21:18:34.032Z,176.13
2019-02-18T21:21:22.556Z,177.80
2019-02-18T21:23:52.035Z,184.57
2019-02-18T21:26:41.210Z,164.80
2019-02-18T21:29:10.649Z,172.33
2019-02-18T21:31:40.029Z,179.73
2019-02-18T21:34:09.445Z,178.27
2019-02-18T21:36:38.756Z,182.63
2019-02-18T21:39:12.640Z,188.67
2019-02-18T21:41:42.156Z,203.90
2019-02-18T21:44:11.550Z,219.33
2019-02-18T21:46:40.952Z,217.20
2019-02-18T21:49:10.691Z,205.53
2019-02-18T21:51:40.049Z,205.83
2019-02-18T21:54:09.413Z,201.77
2019-02-18T21:56:38.807Z,165.37
2019-02-18T21:59:08.251Z,172.90
2019-02-18T22:01:37.575Z,167.30
2019-02-18T22:04:06.989Z,163.37
2019-02-18T22:06:36.370Z,159.93
2019-02-18T22:09:07.459Z,169.83
2019-02-18T22:11:36.935Z,181.83
2019-02-18T22:14:06.307Z,192.20
2019-02-18T22:16:35.743Z,207.20
2019-02-18T22:19:05.603Z,260.67
2019-02-18T22:21:35.027Z,247.27
2019-02-18T22:24:04.514Z,261.50
2019-02-18T22:26:33.903Z,288.13
2019-02-18T22:29:03.391Z,269.87
2019-02-18T22:31:33.855Z,283.57
2019-02-18T22:34:03.337Z,278.53
2019-02-18T22:36:32.744Z,281.60
2019-02-18T22:39:02.212Z,272.53
2019-02-18T22:41:31.674Z,267.47
2019-02-18T22:44:01.053Z,273.07
2019-02-18T22:46:30.508Z,272.60
2019-02-18T22:48:59.903Z,258.70
2019-02-18T22:51:29.354Z,256.37
2019-02-18T22:53:58.839Z,228.13
2019-02-18T22:56:28.285Z,229.87
2019-02-18T22:58:57.756Z,227.33
2019-02-18T23:01:28.122Z,219.13
2019-02-18T23:03:57.607Z,203.37
2019-02-18T23:06:27.620Z,212.07
2019-02-18T23:08:57.044Z,208.40
2019-02-18T23:11:26.551Z,207.30
2019-02-18T23:13:55.952Z,198.57
2019-02-18T23:16:26.349Z,196.63
2019-02-18T23:18:56.764Z,196.07
2019-02-18T23:21:26.375Z,187.97
2019-02-18T23:23:55.737Z,191.97
2019-02-18T23:26:25.714Z,188.67
2019-02-18T23:28:55.143Z,198.73
2019-02-18T23:31:24.513Z,195.40
2019-02-18T23:33:53.892Z,204.73
2019-02-18T23:36:23.649Z,214.87
2019-02-18T23:38:53.044Z,206.97
2019-02-18T23:41:22.407Z,202.07
2019-02-18T23:43:51.780Z,198.07
2019-02-18T23:46:21.127Z,184.93
2019-02-18T23:48:50.585Z,194.47
2019-02-18T23:51:19.945Z,170.10
2019-02-18T23:53:49.421Z,171.67
2019-02-18T23:56:18.760Z,170.70
2019-02-18T23:58:48.107Z,164.63
